M I D A S
Marine Information and Data Acquisition System
Tripno 1707 of the Zeeleeuw from 2009-06-08 08:01:10 to 2009-06-08 14:49:19
Back to CruiseResearch ActivitiesStationsMapUnderway DataData graphs

EquipmentUnitsComment
TimeDGPSUTC
LatitudeDGPSDM.mWGS84
LongitudeDGPSDM.mWGS84
HeadingGyrodeg 
SOGDGPSknotsSpeed over ground
COGDGPSdegCourse over ground
DepthEcho soundermeters200 kHz
Missing or incorrect values are displayed as -999
Navigation data collected by the RV Zeeleeuw from 2009-06-08 07:07:44 to 2009-06-08 14:58:17
                                                                                    Next 1000 lines
Time Latitude Longitude Heading SOG COG Depth
2009-06-08 07:07:54 51°13.662 2°55.962 127.7 0.1 284 -999
2009-06-08 07:07:59 51°13.662 2°55.962 126.7 0.3 358 -999
2009-06-08 07:08:04 51°13.663 2°55.962 125.8 0.1 271 -999
2009-06-08 07:08:09 51°13.662 2°55.962 125.5 0.1 163 -999
2009-06-08 07:08:14 51°13.662 2°55.962 125.3 0.1 122 -999
2009-06-08 07:08:19 51°13.662 2°55.962 125.2 0.1 134 -999
2009-06-08 07:08:24 51°13.662 2°55.962 125.3 -999 208 -999
2009-06-08 07:08:29 51°13.662 2°55.962 125.7 -999 284 -999
2009-06-08 07:08:34 51°13.662 2°55.962 125.7 -999 305 -999
2009-06-08 07:08:39 51°13.662 2°55.962 125.8 0.1 27 -999
2009-06-08 07:08:44 51°13.662 2°55.962 125.7 -999 198 -999
2009-06-08 07:08:49 51°13.662 2°55.962 125.6 -999 8 -999
2009-06-08 07:08:54 51°13.662 2°55.962 125.7 -999 116 -999
2009-06-08 07:08:59 51°13.662 2°55.962 125.9 -999 186 -999
2009-06-08 07:09:04 51°13.662 2°55.962 126.1 0.1 151 -999
2009-06-08 07:09:09 51°13.662 2°55.962 126.3 0.1 115 -999
2009-06-08 07:09:14 51°13.662 2°55.962 126.5 -999 174 -999
2009-06-08 07:09:19 51°13.662 2°55.962 126.8 -999 140 -999
2009-06-08 07:09:24 51°13.662 2°55.962 127.1 0.1 178 -999
2009-06-08 07:09:29 51°13.662 2°55.962 127.2 0.1 85 -999
2009-06-08 07:09:34 51°13.662 2°55.962 127.3 -999 187 -999
2009-06-08 07:09:39 51°13.662 2°55.962 127.3 -999 42 -999
2009-06-08 07:09:44 51°13.662 2°55.962 127.3 -999 183 -999
2009-06-08 07:09:49 51°13.662 2°55.962 127.3 -999 14 -999
2009-06-08 07:09:54 51°13.662 2°55.962 127.3 -999 3 -999
2009-06-08 07:09:59 51°13.662 2°55.962 127.1 -999 56 -999
2009-06-08 07:10:04 51°13.662 2°55.961 127 -999 5 -999
2009-06-08 07:10:09 51°13.662 2°55.961 126.7 -999 43 -999
2009-06-08 07:10:14 51°13.662 2°55.962 126.6 -999 160 -999
2009-06-08 07:10:19 51°13.662 2°55.962 126.6 -999 78 -999
2009-06-08 07:10:24 51°13.663 2°55.962 126.5 -999 266 -999
2009-06-08 07:10:29 51°13.662 2°55.961 126.5 -999 257 -999
2009-06-08 07:10:34 51°13.662 2°55.961 126.4 -999 90 -999
2009-06-08 07:10:39 51°13.662 2°55.961 126.4 -999 281 -999
2009-06-08 07:10:44 51°13.662 2°55.961 126.4 -999 67 -999
2009-06-08 07:10:49 51°13.662 2°55.961 126.3 -999 133 -999
2009-06-08 07:10:54 51°13.662 2°55.961 126.3 -999 99 -999
2009-06-08 07:10:59 51°13.662 2°55.961 126.2 -999 321 -999
2009-06-08 07:11:04 51°13.662 2°55.961 126 -999 330 -999
2009-06-08 07:11:09 51°13.662 2°55.961 126 -999 12 -999
2009-06-08 07:11:14 51°13.663 2°55.961 125.9 -999 349 -999
2009-06-08 07:11:19 51°13.663 2°55.961 125.8 -999 33 -999
2009-06-08 07:11:24 51°13.662 2°55.961 125.7 -999 128 -999
2009-06-08 07:11:29 51°13.662 2°55.961 125.6 -999 139 -999
2009-06-08 07:11:34 51°13.662 2°55.961 125.5 -999 254 -999
2009-06-08 07:11:39 51°13.662 2°55.961 125.3 -999 316 -999
2009-06-08 07:11:44 51°13.662 2°55.961 125.3 -999 321 -999
2009-06-08 07:11:49 51°13.662 2°55.961 125.2 -999 300 -999
2009-06-08 07:11:54 51°13.662 2°55.961 125.2 -999 325 -999
2009-06-08 07:11:59 51°13.662 2°55.961 125.2 -999 159 -999
2009-06-08 07:12:04 51°13.662 2°55.961 125.2 -999 316 -999
2009-06-08 07:12:09 51°13.662 2°55.961 125.3 -999 316 -999
2009-06-08 07:12:14 51°13.662 2°55.961 125.3 -999 129 -999
2009-06-08 07:12:19 51°13.662 2°55.961 125.3 -999 197 -999
2009-06-08 07:12:24 51°13.662 2°55.961 125.3 -999 312 -999
2009-06-08 07:12:29 51°13.662 2°55.961 125.5 -999 301 -999
2009-06-08 07:12:34 51°13.662 2°55.961 125.5 -999 113 -999
2009-06-08 07:12:39 51°13.662 2°55.961 125.5 -999 273 -999
2009-06-08 07:12:44 51°13.662 2°55.961 125.5 -999 100 -999
2009-06-08 07:12:49 51°13.662 2°55.961 125.5 -999 231 -999
2009-06-08 07:12:54 51°13.661 2°55.961 125.5 -999 130 -999
2009-06-08 07:12:59 51°13.661 2°55.961 125.6 0.1 171 -999
2009-06-08 07:13:04 51°13.661 2°55.961 125.7 -999 149 -999
2009-06-08 07:13:09 51°13.661 2°55.961 125.7 -999 108 -999
2009-06-08 07:13:14 51°13.661 2°55.961 125.8 -999 192 -999
2009-06-08 07:13:19 51°13.661 2°55.961 126 -999 323 -999
2009-06-08 07:13:24 51°13.661 2°55.961 126.1 -999 149 -999
2009-06-08 07:13:29 51°13.661 2°55.961 126.1 -999 140 -999
2009-06-08 07:13:34 51°13.661 2°55.961 126.2 -999 203 -999
2009-06-08 07:13:39 51°13.661 2°55.961 126.2 -999 103 -999
2009-06-08 07:13:44 51°13.661 2°55.961 126.3 -999 204 -999
2009-06-08 07:13:49 51°13.661 2°55.961 126.3 -999 2 -999
2009-06-08 07:13:54 51°13.661 2°55.961 126.3 -999 199 -999
2009-06-08 07:13:59 51°13.661 2°55.961 126.4 -999 40 -999
2009-06-08 07:14:04 51°13.661 2°55.961 126.4 -999 30 -999
2009-06-08 07:14:09 51°13.661 2°55.961 126.4 0.1 317 -999
2009-06-08 07:14:14 51°13.661 2°55.961 126.4 -999 309 -999
2009-06-08 07:14:19 51°13.661 2°55.961 126.4 -999 318 -999
2009-06-08 07:14:24 51°13.662 2°55.961 126.4 -999 338 -999
2009-06-08 07:14:29 51°13.661 2°55.961 126.4 -999 114 -999
2009-06-08 07:14:34 51°13.661 2°55.961 126.4 -999 152 -999
2009-06-08 07:14:39 51°13.661 2°55.961 126.4 0.1 117 -999
2009-06-08 07:14:44 51°13.661 2°55.961 126.4 -999 84 -999
2009-06-08 07:14:49 51°13.661 2°55.961 126.4 -999 165 -999
2009-06-08 07:14:54 51°13.661 2°55.961 126.5 -999 273 -999
2009-06-08 07:14:59 51°13.661 2°55.961 126.6 -999 275 -999
2009-06-08 07:15:04 51°13.661 2°55.962 126.6 -999 97 -999
2009-06-08 07:15:09 51°13.661 2°55.961 126.6 -999 122 -999
2009-06-08 07:15:14 51°13.661 2°55.961 126.6 -999 138 -999
2009-06-08 07:15:19 51°13.661 2°55.961 126.6 -999 160 -999
2009-06-08 07:15:24 51°13.661 2°55.961 126.6 -999 187 -999
2009-06-08 07:15:29 51°13.661 2°55.961 126.6 -999 212 -999
2009-06-08 07:15:34 51°13.661 2°55.961 126.6 -999 157 -999
2009-06-08 07:15:39 51°13.661 2°55.961 126.7 -999 58 -999
2009-06-08 07:15:44 51°13.661 2°55.961 126.7 -999 313 -999
2009-06-08 07:15:49 51°13.661 2°55.961 126.9 -999 322 -999
2009-06-08 07:15:54 51°13.661 2°55.961 126.9 -999 81 -999
2009-06-08 07:15:59 51°13.661 2°55.961 127 -999 183 -999
2009-06-08 07:16:04 51°13.661 2°55.961 127.1 -999 232 -999
2009-06-08 07:16:09 51°13.661 2°55.961 127.1 -999 332 -999
2009-06-08 07:16:14 51°13.661 2°55.961 127.2 -999 240 -999
2009-06-08 07:16:19 51°13.662 2°55.961 127.2 -999 346 -999
2009-06-08 07:16:24 51°13.662 2°55.961 127.2 -999 306 -999
2009-06-08 07:16:29 51°13.662 2°55.961 127.1 -999 116 -999
2009-06-08 07:16:34 51°13.661 2°55.961 127.1 -999 130 -999
2009-06-08 07:16:39 51°13.661 2°55.961 127 -999 36 -999
2009-06-08 07:16:44 51°13.661 2°55.961 127 -999 49 -999
2009-06-08 07:16:49 51°13.661 2°55.961 127 -999 110 -999
2009-06-08 07:16:54 51°13.661 2°55.961 126.9 -999 142 -999
2009-06-08 07:16:59 51°13.661 2°55.961 126.9 -999 39 -999
2009-06-08 07:17:04 51°13.662 2°55.961 126.9 -999 108 -999
2009-06-08 07:17:09 51°13.662 2°55.961 126.9 -999 94 -999
2009-06-08 07:17:14 51°13.662 2°55.961 126.9 0.1 140 -999
2009-06-08 07:17:19 51°13.662 2°55.961 126.9 -999 139 -999
2009-06-08 07:17:24 51°13.662 2°55.961 126.9 -999 85 -999
2009-06-08 07:17:29 51°13.662 2°55.961 126.8 -999 142 -999
2009-06-08 07:17:34 51°13.662 2°55.961 126.8 -999 336 -999
2009-06-08 07:17:39 51°13.662 2°55.961 126.7 -999 298 -999
2009-06-08 07:17:44 51°13.662 2°55.961 126.7 -999 235 -999
2009-06-08 07:17:49 51°13.662 2°55.961 126.7 -999 116 -999
2009-06-08 07:17:54 51°13.662 2°55.961 126.7 -999 125 -999
2009-06-08 07:17:59 51°13.662 2°55.961 126.6 -999 74 -999
2009-06-08 07:18:04 51°13.662 2°55.961 126.6 -999 157 -999
2009-06-08 07:18:09 51°13.662 2°55.961 126.6 -999 122 -999
2009-06-08 07:18:14 51°13.662 2°55.961 126.6 -999 1 -999
2009-06-08 07:18:19 51°13.662 2°55.961 126.6 -999 23 -999
2009-06-08 07:18:24 51°13.662 2°55.961 126.6 -999 6 -999
2009-06-08 07:18:29 51°13.662 2°55.961 126.7 0.1 300 -999
2009-06-08 07:18:34 51°13.662 2°55.961 126.8 -999 253 -999
2009-06-08 07:18:39 51°13.662 2°55.962 126.9 0.1 125 -999
2009-06-08 07:18:44 51°13.662 2°55.962 126.9 0.1 131 -999
2009-06-08 07:18:49 51°13.662 2°55.962 127.1 0.1 126 -999
2009-06-08 07:18:54 51°13.662 2°55.962 127.1 -999 86 -999
2009-06-08 07:18:59 51°13.662 2°55.961 127.1 -999 121 -999
2009-06-08 07:19:04 51°13.662 2°55.961 127.1 -999 335 -999
2009-06-08 07:19:09 51°13.662 2°55.961 127.1 -999 295 -999
2009-06-08 07:19:14 51°13.662 2°55.962 127.1 -999 148 -999
2009-06-08 07:19:19 51°13.662 2°55.962 127.1 0.1 311 -999
2009-06-08 07:19:24 51°13.662 2°55.961 127.1 0.1 315 -999
2009-06-08 07:19:29 51°13.662 2°55.962 127 -999 103 -999
2009-06-08 07:19:34 51°13.662 2°55.962 127 -999 275 -999
2009-06-08 07:19:39 51°13.662 2°55.962 127 -999 242 -999
2009-06-08 07:19:44 51°13.662 2°55.962 127 -999 301 -999
2009-06-08 07:19:49 51°13.662 2°55.962 127 -999 346 -999
2009-06-08 07:19:54 51°13.662 2°55.962 127 -999 28 -999
2009-06-08 07:19:59 51°13.662 2°55.962 127 -999 136 -999
2009-06-08 07:20:04 51°13.661 2°55.961 127 -999 101 -999
2009-06-08 07:20:09 51°13.661 2°55.961 127 -999 66 -999
2009-06-08 07:20:14 51°13.661 2°55.959 127 -999 343 -999
2009-06-08 07:20:19 51°13.661 2°55.959 127 0.1 315 -999
2009-06-08 07:20:24 51°13.662 2°55.959 127 0.1 306 -999
2009-06-08 07:20:29 51°13.662 2°55.96 127 0.1 310 -999
2009-06-08 07:20:34 51°13.662 2°55.96 127 -999 307 -999
2009-06-08 07:20:39 51°13.662 2°55.961 127 -999 4 -999
2009-06-08 07:20:44 51°13.662 2°55.961 127 -999 64 -999
2009-06-08 07:20:49 51°13.661 2°55.96 127 -999 146 -999
2009-06-08 07:20:54 51°13.661 2°55.96 127.1 -999 59 -999
2009-06-08 07:20:59 51°13.661 2°55.96 127.1 -999 326 -999
2009-06-08 07:21:04 51°13.662 2°55.96 127.1 -999 340 -999
2009-06-08 07:21:09 51°13.662 2°55.96 127.1 -999 128 -999
2009-06-08 07:21:14 51°13.662 2°55.96 127.1 -999 293 -999
2009-06-08 07:21:19 51°13.662 2°55.96 127.1 -999 321 -999
2009-06-08 07:21:24 51°13.661 2°55.961 127.1 -999 127 -999
2009-06-08 07:21:29 51°13.661 2°55.961 127.1 -999 145 -999
2009-06-08 07:21:34 51°13.661 2°55.961 127.1 -999 120 -999
2009-06-08 07:21:39 51°13.661 2°55.961 127.1 -999 105 -999
2009-06-08 07:21:44 51°13.662 2°55.961 127.1 -999 92 -999
2009-06-08 07:21:49 51°13.661 2°55.961 127.1 -999 200 -999
2009-06-08 07:21:54 51°13.661 2°55.961 127.2 -999 138 -999
2009-06-08 07:21:59 51°13.661 2°55.961 127.3 -999 69 -999
2009-06-08 07:22:04 51°13.661 2°55.961 127.3 -999 174 -999
2009-06-08 07:22:09 51°13.661 2°55.961 127.4 -999 237 -999
2009-06-08 07:22:14 51°13.662 2°55.961 127.4 -999 301 -999
2009-06-08 07:22:19 51°13.662 2°55.962 127.4 -999 295 -999
2009-06-08 07:22:24 51°13.662 2°55.962 127.3 -999 312 -999
2009-06-08 07:22:29 51°13.662 2°55.962 127.1 -999 292 -999
2009-06-08 07:22:34 51°13.662 2°55.962 127.1 -999 96 -999
2009-06-08 07:22:39 51°13.662 2°55.962 126.9 -999 139 -999
2009-06-08 07:22:44 51°13.662 2°55.962 126.8 -999 92 -999
2009-06-08 07:22:49 51°13.662 2°55.963 126.7 -999 189 -999
2009-06-08 07:22:54 51°13.662 2°55.963 126.6 -999 109 -999
2009-06-08 07:22:59 51°13.662 2°55.962 126.5 -999 192 -999
2009-06-08 07:23:04 51°13.662 2°55.962 126.4 -999 116 -999
2009-06-08 07:23:09 51°13.662 2°55.962 126.4 -999 133 -999
2009-06-08 07:23:14 51°13.662 2°55.962 126.4 -999 108 -999
2009-06-08 07:23:19 51°13.662 2°55.962 126.3 -999 62 -999
2009-06-08 07:23:24 51°13.662 2°55.962 126.3 -999 189 -999
2009-06-08 07:23:29 51°13.662 2°55.962 126.3 -999 128 -999
2009-06-08 07:23:34 51°13.662 2°55.962 126.4 0.1 186 -999
2009-06-08 07:23:39 51°13.662 2°55.963 126.5 -999 150 -999
2009-06-08 07:23:44 51°13.662 2°55.963 126.6 -999 177 -999
2009-06-08 07:23:49 51°13.662 2°55.963 126.7 -999 77 -999
2009-06-08 07:23:54 51°13.662 2°55.963 126.8 -999 150 -999
2009-06-08 07:23:59 51°13.662 2°55.962 126.9 -999 313 -999
2009-06-08 07:24:04 51°13.662 2°55.963 127 -999 204 -999
2009-06-08 07:24:09 51°13.662 2°55.963 127.1 -999 41 -999
2009-06-08 07:24:14 51°13.662 2°55.963 127.1 0.1 131 -999
2009-06-08 07:24:19 51°13.662 2°55.963 127.1 -999 92 -999
2009-06-08 07:24:24 51°13.662 2°55.961 127.1 -999 116 -999
2009-06-08 07:24:29 51°13.662 2°55.961 127.1 -999 79 -999
2009-06-08 07:24:34 51°13.662 2°55.961 127.1 -999 71 -999
2009-06-08 07:24:39 51°13.662 2°55.961 127.3 -999 226 -999
2009-06-08 07:24:44 51°13.662 2°55.961 127.4 -999 281 -999
2009-06-08 07:24:49 51°13.662 2°55.961 127.5 -999 320 -999
2009-06-08 07:24:54 51°13.662 2°55.962 127.5 -999 120 -999
2009-06-08 07:24:59 51°13.662 2°55.962 127.5 -999 108 -999
2009-06-08 07:25:04 51°13.662 2°55.962 127.5 -999 105 -999
2009-06-08 07:25:09 51°13.662 2°55.963 127.4 -999 124 -999
2009-06-08 07:25:14 51°13.662 2°55.963 127.3 -999 100 -999
2009-06-08 07:25:19 51°13.662 2°55.962 127.3 -999 111 -999
2009-06-08 07:25:24 51°13.662 2°55.961 127.3 0.1 344 -999
2009-06-08 07:25:29 51°13.662 2°55.961 127.3 -999 357 -999
2009-06-08 07:25:34 51°13.662 2°55.961 127.3 -999 39 -999
2009-06-08 07:25:39 51°13.662 2°55.961 127.3 -999 315 -999
2009-06-08 07:25:44 51°13.662 2°55.961 127.3 -999 234 -999
2009-06-08 07:25:49 51°13.662 2°55.961 127.4 -999 208 -999
2009-06-08 07:25:54 51°13.662 2°55.961 127.4 0.1 69 -999
2009-06-08 07:25:59 51°13.662 2°55.961 127.4 -999 88 -999
2009-06-08 07:26:04 51°13.661 2°55.96 127.4 -999 142 -999
2009-06-08 07:26:09 51°13.661 2°55.96 127.4 -999 138 -999
2009-06-08 07:26:14 51°13.661 2°55.96 127.4 -999 150 -999
2009-06-08 07:26:19 51°13.661 2°55.96 127.4 -999 335 -999
2009-06-08 07:26:24 51°13.661 2°55.96 127.4 -999 39 -999
2009-06-08 07:26:29 51°13.661 2°55.96 127.4 -999 272 -999
2009-06-08 07:26:34 51°13.661 2°55.96 127.4 -999 281 -999
2009-06-08 07:26:39 51°13.661 2°55.961 127.4 -999 167 -999
2009-06-08 07:26:44 51°13.661 2°55.961 127.4 -999 97 -999
2009-06-08 07:26:49 51°13.661 2°55.961 127.4 -999 156 -999
2009-06-08 07:26:54 51°13.661 2°55.961 127.4 -999 -999 -999
2009-06-08 07:26:59 51°13.661 2°55.961 127.4 -999 287 -999
2009-06-08 07:27:04 51°13.661 2°55.961 127.4 -999 23 -999
2009-06-08 07:27:09 51°13.661 2°55.96 127.4 -999 130 -999
2009-06-08 07:27:14 51°13.661 2°55.96 127.4 -999 144 -999
2009-06-08 07:27:19 51°13.661 2°55.96 127.4 -999 140 -999
2009-06-08 07:27:24 51°13.661 2°55.96 127.4 -999 148 -999
2009-06-08 07:27:29 51°13.661 2°55.96 127.4 -999 134 -999
2009-06-08 07:27:34 51°13.661 2°55.961 127.4 -999 311 -999
2009-06-08 07:27:39 51°13.661 2°55.961 127.4 0.1 326 -999
2009-06-08 07:27:44 51°13.661 2°55.961 127.4 0.1 323 -999
2009-06-08 07:27:49 51°13.661 2°55.961 127.4 -999 352 -999
2009-06-08 07:27:54 51°13.661 2°55.961 127.4 -999 9 -999
2009-06-08 07:27:59 51°13.661 2°55.961 127.5 -999 161 -999
2009-06-08 07:28:04 51°13.661 2°55.961 127.5 -999 351 -999
2009-06-08 07:28:09 51°13.661 2°55.961 127.5 -999 151 -999
2009-06-08 07:28:14 51°13.661 2°55.961 127.4 -999 203 -999
2009-06-08 07:28:19 51°13.661 2°55.961 127.4 -999 77 -999
2009-06-08 07:28:24 51°13.661 2°55.961 127.4 -999 118 -999
2009-06-08 07:28:29 51°13.661 2°55.961 127.4 0.1 325 -999
2009-06-08 07:28:34 51°13.661 2°55.961 127.4 -999 119 -999
2009-06-08 07:28:39 51°13.661 2°55.961 127.4 -999 137 -999
2009-06-08 07:28:44 51°13.662 2°55.961 127.4 -999 262 -999
2009-06-08 07:28:49 51°13.662 2°55.961 127.4 -999 191 -999
2009-06-08 07:28:54 51°13.662 2°55.961 127.4 -999 262 -999
2009-06-08 07:28:59 51°13.661 2°55.961 127.4 0.1 130 -999
2009-06-08 07:29:04 51°13.661 2°55.961 127.4 -999 146 -999
2009-06-08 07:29:09 51°13.661 2°55.96 127.4 -999 234 -999
2009-06-08 07:29:14 51°13.661 2°55.96 127.4 -999 349 -999
2009-06-08 07:29:19 51°13.661 2°55.96 127.4 -999 172 -999
2009-06-08 07:29:24 51°13.661 2°55.961 127.4 -999 118 -999
2009-06-08 07:29:29 51°13.661 2°55.961 127.4 -999 307 -999
2009-06-08 07:29:34 51°13.661 2°55.961 127.4 -999 95 -999
2009-06-08 07:29:39 51°13.661 2°55.961 127.4 -999 157 -999
2009-06-08 07:29:44 51°13.661 2°55.961 127.3 0.1 155 -999
2009-06-08 07:29:49 51°13.662 2°55.961 127.3 -999 161 -999
2009-06-08 07:29:54 51°13.662 2°55.961 127.3 -999 166 -999
2009-06-08 07:29:59 51°13.662 2°55.961 127.3 -999 358 -999
2009-06-08 07:30:04 51°13.662 2°55.961 127.4 0.1 341 -999
2009-06-08 07:30:09 51°13.662 2°55.961 127.4 -999 90 -999
2009-06-08 07:30:14 51°13.662 2°55.961 127.4 -999 227 -999
2009-06-08 07:30:19 51°13.662 2°55.961 127.4 -999 316 -999
2009-06-08 07:30:24 51°13.662 2°55.961 127.4 -999 80 -999
2009-06-08 07:30:29 51°13.661 2°55.961 127.4 0.1 155 -999
2009-06-08 07:30:34 51°13.662 2°55.962 127.5 0.1 166 -999
2009-06-08 07:30:39 51°13.663 2°55.963 127.5 0.1 174 -999
2009-06-08 07:30:44 51°13.663 2°55.963 127.6 0.1 163 -999
2009-06-08 07:30:49 51°13.664 2°55.964 127.6 -999 247 -999
2009-06-08 07:30:54 51°13.665 2°55.964 127.7 -999 289 -999
2009-06-08 07:30:59 51°13.665 2°55.964 127.7 -999 243 -999
2009-06-08 07:31:04 51°13.664 2°55.963 127.8 -999 157 -999
2009-06-08 07:31:09 51°13.663 2°55.962 127.8 0.1 138 -999
2009-06-08 07:31:14 51°13.662 2°55.961 127.8 -999 272 -999
2009-06-08 07:31:19 51°13.661 2°55.96 127.8 -999 288 -999
2009-06-08 07:31:24 51°13.661 2°55.96 127.8 -999 263 -999
2009-06-08 07:31:29 51°13.661 2°55.96 127.7 -999 248 -999
2009-06-08 07:31:34 51°13.661 2°55.961 127.7 -999 64 -999
2009-06-08 07:31:39 51°13.662 2°55.961 127.6 0.1 332 -999
2009-06-08 07:31:44 51°13.662 2°55.961 127.6 -999 237 -999
2009-06-08 07:31:49 51°13.662 2°55.961 127.5 -999 332 -999
2009-06-08 07:31:54 51°13.662 2°55.962 127.5 -999 336 -999
2009-06-08 07:31:59 51°13.662 2°55.962 127.5 -999 339 -999
2009-06-08 07:32:04 51°13.662 2°55.962 127.5 -999 301 -999
2009-06-08 07:32:09 51°13.662 2°55.962 127.5 0.1 316 -999
2009-06-08 07:32:14 51°13.662 2°55.962 127.5 -999 229 -999
2009-06-08 07:32:19 51°13.662 2°55.962 127.5 -999 174 -999
2009-06-08 07:32:24 51°13.662 2°55.962 127.5 -999 283 -999
2009-06-08 07:32:29 51°13.663 2°55.963 127.4 0.1 287 -999
2009-06-08 07:32:34 51°13.663 2°55.963 127.3 -999 224 -999
2009-06-08 07:32:39 51°13.662 2°55.962 127.3 -999 150 -999
2009-06-08 07:32:44 51°13.66 2°55.96 127.3 0.1 184 -999
2009-06-08 07:32:49 51°13.659 2°55.959 127.2 0.1 171 -999
2009-06-08 07:32:54 51°13.658 2°55.958 127.2 0.1 176 -999
2009-06-08 07:32:59 51°13.658 2°55.958 127.2 0.1 160 -999
2009-06-08 07:33:04 51°13.658 2°55.958 127.2 0.1 150 -999
2009-06-08 07:33:09 51°13.658 2°55.958 127.2 0.1 147 -999
2009-06-08 07:33:14 51°13.659 2°55.959 127.2 -999 173 -999
2009-06-08 07:33:19 51°13.659 2°55.959 127.2 0.1 148 -999
2009-06-08 07:33:24 51°13.66 2°55.96 127.2 -999 264 -999
2009-06-08 07:33:29 51°13.66 2°55.96 127.2 0.1 329 -999
2009-06-08 07:33:34 51°13.66 2°55.96 127.4 -999 353 -999
2009-06-08 07:33:39 51°13.66 2°55.96 127.5 -999 337 -999
2009-06-08 07:33:44 51°13.66 2°55.96 127.6 -999 344 -999
2009-06-08 07:33:49 51°13.66 2°55.96 127.7 -999 155 -999
2009-06-08 07:33:54 51°13.66 2°55.96 127.8 -999 323 -999
2009-06-08 07:33:59 51°13.66 2°55.96 127.8 0.1 5 -999
2009-06-08 07:34:04 51°13.66 2°55.96 127.8 -999 10 -999
2009-06-08 07:34:09 51°13.661 2°55.96 127.7 0.1 4 -999
2009-06-08 07:34:14 51°13.66 2°55.96 127.6 0.1 162 -999
2009-06-08 07:34:19 51°13.661 2°55.961 127.6 0.1 138 -999
2009-06-08 07:34:24 51°13.661 2°55.961 127.6 -999 344 -999
2009-06-08 07:34:29 51°13.661 2°55.961 127.6 0.1 6 -999
2009-06-08 07:34:34 51°13.661 2°55.961 127.7 -999 121 -999
2009-06-08 07:34:39 51°13.661 2°55.961 127.7 -999 80 -999
2009-06-08 07:34:44 51°13.661 2°55.961 127.8 -999 312 -999
2009-06-08 07:34:49 51°13.661 2°55.961 127.8 -999 138 -999
2009-06-08 07:34:54 51°13.661 2°55.962 127.8 -999 140 -999
2009-06-08 07:34:59 51°13.661 2°55.962 127.8 -999 348 -999
2009-06-08 07:35:04 51°13.661 2°55.962 127.8 -999 356 -999
2009-06-08 07:35:09 51°13.661 2°55.962 127.8 -999 65 -999
2009-06-08 07:35:14 51°13.661 2°55.962 127.7 -999 162 -999
2009-06-08 07:35:19 51°13.661 2°55.962 127.6 -999 336 -999
2009-06-08 07:35:24 51°13.662 2°55.962 127.6 -999 308 -999
2009-06-08 07:35:29 51°13.662 2°55.962 127.6 -999 262 -999
2009-06-08 07:35:34 51°13.662 2°55.962 127.6 0.1 314 -999
2009-06-08 07:35:39 51°13.662 2°55.962 127.6 -999 308 -999
2009-06-08 07:35:44 51°13.662 2°55.962 127.6 0.1 340 -999
2009-06-08 07:35:49 51°13.662 2°55.962 127.6 0.1 342 -999
2009-06-08 07:35:54 51°13.662 2°55.962 127.6 -999 336 -999
2009-06-08 07:35:59 51°13.662 2°55.962 127.6 -999 30 -999
2009-06-08 07:36:04 51°13.662 2°55.962 127.5 -999 163 -999
2009-06-08 07:36:09 51°13.662 2°55.962 127.5 0.1 341 -999
2009-06-08 07:36:14 51°13.662 2°55.962 127.5 -999 353 -999
2009-06-08 07:36:19 51°13.662 2°55.962 127.5 -999 17 -999
2009-06-08 07:36:24 51°13.662 2°55.962 127.5 -999 38 -999
2009-06-08 07:36:29 51°13.662 2°55.962 127.5 -999 52 -999
2009-06-08 07:36:34 51°13.662 2°55.963 127.5 -999 150 -999
2009-06-08 07:36:39 51°13.662 2°55.963 127.5 0.1 148 -999
2009-06-08 07:36:44 51°13.662 2°55.963 127.5 0.1 142 -999
2009-06-08 07:36:49 51°13.663 2°55.963 127.5 -999 348 -999
2009-06-08 07:36:54 51°13.663 2°55.962 127.5 0.1 333 -999
2009-06-08 07:36:59 51°13.663 2°55.962 127.5 -999 346 -999
2009-06-08 07:37:04 51°13.663 2°55.962 127.5 -999 -999 -999
2009-06-08 07:37:09 51°13.663 2°55.963 127.5 -999 91 -999
2009-06-08 07:37:14 51°13.663 2°55.963 127.5 -999 339 -999
2009-06-08 07:37:19 51°13.663 2°55.963 127.6 -999 202 -999
2009-06-08 07:37:24 51°13.663 2°55.963 127.6 -999 329 -999
2009-06-08 07:37:29 51°13.663 2°55.963 127.6 -999 15 -999
2009-06-08 07:37:34 51°13.663 2°55.963 127.6 -999 353 -999
2009-06-08 07:37:39 51°13.663 2°55.963 127.6 0.1 341 -999
2009-06-08 07:37:44 51°13.663 2°55.963 127.6 -999 176 -999
2009-06-08 07:37:49 51°13.663 2°55.963 127.6 -999 199 -999
2009-06-08 07:37:54 51°13.663 2°55.963 127.6 -999 65 -999
2009-06-08 07:37:59 51°13.663 2°55.963 127.5 -999 315 -999
2009-06-08 07:38:04 51°13.663 2°55.963 127.5 0.1 165 -999
2009-06-08 07:38:09 51°13.663 2°55.963 127.5 -999 355 -999
2009-06-08 07:38:14 51°13.663 2°55.963 127.5 0.1 162 -999
2009-06-08 07:38:19 51°13.663 2°55.963 127.4 -999 165 -999
2009-06-08 07:38:24 51°13.663 2°55.963 127.3 -999 330 -999
2009-06-08 07:38:29 51°13.663 2°55.963 127.3 -999 335 -999
2009-06-08 07:38:34 51°13.663 2°55.963 127.2 -999 129 -999
2009-06-08 07:38:39 51°13.663 2°55.963 127.2 0.1 337 -999
2009-06-08 07:38:44 51°13.663 2°55.963 127.2 -999 318 -999
2009-06-08 07:38:49 51°13.663 2°55.963 127.2 -999 204 -999
2009-06-08 07:38:54 51°13.663 2°55.963 127.2 -999 145 -999
2009-06-08 07:38:59 51°13.662 2°55.963 127.2 0.1 151 -999
2009-06-08 07:39:04 51°13.663 2°55.963 127.2 -999 317 -999
2009-06-08 07:39:09 51°13.663 2°55.963 127.2 0.1 314 -999
2009-06-08 07:39:14 51°13.663 2°55.963 127.2 -999 308 -999
2009-06-08 07:39:19 51°13.663 2°55.963 127.2 -999 184 -999
2009-06-08 07:39:24 51°13.663 2°55.963 127.2 -999 149 -999
2009-06-08 07:39:29 51°13.663 2°55.963 127.2 0.1 142 -999
2009-06-08 07:39:34 51°13.663 2°55.963 127.2 -999 278 -999
2009-06-08 07:39:39 51°13.663 2°55.963 127.3 -999 114 -999
2009-06-08 07:39:44 51°13.663 2°55.962 127.3 -999 216 -999
2009-06-08 07:39:49 51°13.663 2°55.962 127.3 -999 342 -999
2009-06-08 07:39:54 51°13.662 2°55.962 127.3 0.1 158 -999
2009-06-08 07:39:59 51°13.662 2°55.962 127.3 0.1 156 -999
2009-06-08 07:40:04 51°13.662 2°55.962 127.3 -999 18 -999
2009-06-08 07:40:09 51°13.662 2°55.962 127.3 0.1 156 -999
2009-06-08 07:40:14 51°13.662 2°55.962 127.3 -999 172 -999
2009-06-08 07:40:19 51°13.662 2°55.962 127.3 -999 24 -999
2009-06-08 07:40:24 51°13.662 2°55.962 127.3 -999 222 -999
2009-06-08 07:40:29 51°13.662 2°55.962 127.4 -999 293 -999
2009-06-08 07:40:34 51°13.662 2°55.962 127.4 -999 177 -999
2009-06-08 07:40:39 51°13.662 2°55.962 127.5 0.1 160 -999
2009-06-08 07:40:44 51°13.662 2°55.962 127.5 -999 181 -999
2009-06-08 07:40:49 51°13.662 2°55.962 127.6 -999 16 -999
2009-06-08 07:40:54 51°13.662 2°55.962 127.6 -999 165 -999
2009-06-08 07:40:59 51°13.662 2°55.962 127.7 -999 129 -999
2009-06-08 07:41:04 51°13.663 2°55.964 127.7 -999 328 -999
2009-06-08 07:41:09 51°13.664 2°55.964 127.8 -999 345 -999
2009-06-08 07:41:14 51°13.663 2°55.964 127.8 -999 107 -999
2009-06-08 07:41:19 51°13.662 2°55.962 127.8 0.1 147 -999
2009-06-08 07:41:24 51°13.661 2°55.962 127.8 0.1 161 -999
2009-06-08 07:41:29 51°13.662 2°55.962 127.8 0.1 147 -999
2009-06-08 07:41:34 51°13.662 2°55.963 127.8 -999 209 -999
2009-06-08 07:41:39 51°13.662 2°55.963 127.8 -999 353 -999
2009-06-08 07:41:44 51°13.663 2°55.963 127.8 -999 23 -999
2009-06-08 07:41:49 51°13.663 2°55.963 127.8 -999 159 -999
2009-06-08 07:41:54 51°13.663 2°55.964 127.8 0.1 125 -999
2009-06-08 07:41:59 51°13.663 2°55.964 127.8 -999 136 -999
2009-06-08 07:42:04 51°13.664 2°55.964 127.8 -999 322 -999
2009-06-08 07:42:09 51°13.664 2°55.963 127.8 -999 332 -999
2009-06-08 07:42:14 51°13.664 2°55.964 127.8 -999 64 -999
2009-06-08 07:42:19 51°13.664 2°55.963 127.8 -999 143 -999
2009-06-08 07:42:24 51°13.663 2°55.963 127.8 0.1 160 -999
2009-06-08 07:42:29 51°13.663 2°55.963 127.8 0.1 155 -999
2009-06-08 07:42:34 51°13.663 2°55.963 127.8 -999 62 -999
2009-06-08 07:42:39 51°13.664 2°55.964 127.8 -999 309 -999
2009-06-08 07:42:44 51°13.664 2°55.964 127.8 -999 96 -999
2009-06-08 07:42:49 51°13.664 2°55.964 127.8 -999 168 -999
2009-06-08 07:42:54 51°13.664 2°55.963 127.8 0.1 355 -999
2009-06-08 07:42:59 51°13.663 2°55.963 127.8 -999 159 -999
2009-06-08 07:43:04 51°13.663 2°55.963 127.8 0.1 162 -999
2009-06-08 07:43:09 51°13.663 2°55.963 127.8 -999 174 -999
2009-06-08 07:43:14 51°13.663 2°55.964 127.8 -999 14 -999
2009-06-08 07:43:19 51°13.664 2°55.964 127.8 -999 92 -999
2009-06-08 07:43:24 51°13.664 2°55.964 127.8 -999 326 -999
2009-06-08 07:43:29 51°13.664 2°55.965 127.8 -999 125 -999
2009-06-08 07:43:34 51°13.664 2°55.964 127.9 0.1 147 -999
2009-06-08 07:43:39 51°13.664 2°55.964 127.9 -999 173 -999
2009-06-08 07:43:44 51°13.664 2°55.964 127.9 -999 314 -999
2009-06-08 07:43:49 51°13.664 2°55.964 128 -999 253 -999
2009-06-08 07:43:54 51°13.664 2°55.964 128 -999 300 -999
2009-06-08 07:43:59 51°13.664 2°55.963 128 0.1 351 -999
2009-06-08 07:44:04 51°13.663 2°55.963 128 -999 310 -999
2009-06-08 07:44:09 51°13.663 2°55.963 128 -999 127 -999
2009-06-08 07:44:14 51°13.662 2°55.962 128 -999 196 -999
2009-06-08 07:44:19 51°13.663 2°55.963 128 -999 4 -999
2009-06-08 07:44:24 51°13.662 2°55.962 128 -999 293 -999
2009-06-08 07:44:29 51°13.662 2°55.962 128 -999 3 -999
2009-06-08 07:44:34 51°13.662 2°55.962 128 -999 156 -999
2009-06-08 07:44:39 51°13.663 2°55.963 128 -999 343 -999
2009-06-08 07:44:44 51°13.664 2°55.963 128 0.1 347 -999
2009-06-08 07:44:49 51°13.664 2°55.964 128 0.1 348 -999
2009-06-08 07:44:54 51°13.663 2°55.963 128 -999 121 -999
2009-06-08 07:44:59 51°13.663 2°55.962 128 -999 61 -999
2009-06-08 07:45:04 51°13.662 2°55.962 128 -999 168 -999
2009-06-08 07:45:09 51°13.662 2°55.962 128 0.1 157 -999
2009-06-08 07:45:14 51°13.662 2°55.962 128 -999 142 -999
2009-06-08 07:45:19 51°13.662 2°55.962 128.1 -999 210 -999
2009-06-08 07:45:24 51°13.662 2°55.962 128.2 0.1 155 -999
2009-06-08 07:45:29 51°13.662 2°55.962 128.4 0.1 150 -999
2009-06-08 07:45:34 51°13.662 2°55.961 128.5 -999 263 -999
2009-06-08 07:45:39 51°13.662 2°55.962 128.5 0.1 161 -999
2009-06-08 07:45:44 51°13.662 2°55.962 128.5 -999 128 -999
2009-06-08 07:45:49 51°13.662 2°55.961 128.5 -999 215 -999
2009-06-08 07:45:54 51°13.662 2°55.961 128.5 -999 259 -999
2009-06-08 07:45:59 51°13.662 2°55.961 128.5 -999 144 -999
2009-06-08 07:46:04 51°13.662 2°55.962 128.4 0.1 142 -999
2009-06-08 07:46:09 51°13.662 2°55.962 128.4 -999 176 -999
2009-06-08 07:46:14 51°13.662 2°55.961 128.4 -999 13 -999
2009-06-08 07:46:19 51°13.662 2°55.961 128.4 -999 17 -999
2009-06-08 07:46:24 51°13.662 2°55.961 128.4 -999 359 -999
2009-06-08 07:46:29 51°13.662 2°55.961 128.4 0.1 295 -999
2009-06-08 07:46:34 51°13.662 2°55.962 128.3 0.1 325 4.7
2009-06-08 07:46:38 51°13.662 2°55.961 128.3 0.1 334 4.7
2009-06-08 07:46:44 51°13.662 2°55.962 128.3 -999 327 4.7
2009-06-08 07:46:49 51°13.662 2°55.961 128.3 -999 280 4.7
2009-06-08 07:46:53 51°13.662 2°55.961 128.3 -999 280 4.7
2009-06-08 07:46:58 51°13.662 2°55.961 128.3 -999 305 4.7
2009-06-08 07:47:03 51°13.664 2°55.964 128.3 -999 325 4.7
2009-06-08 07:47:08 51°13.665 2°55.965 128.3 -999 282 4.7
2009-06-08 07:47:13 51°13.663 2°55.963 128.3 -999 58 4.7
2009-06-08 07:47:18 51°13.662 2°55.962 128.3 -999 29 4.7
2009-06-08 07:47:22 51°13.663 2°55.962 128.3 -999 135 4.7
2009-06-08 07:47:27 51°13.662 2°55.962 128.3 0.1 128 4.7
2009-06-08 07:47:32 51°13.662 2°55.962 128.3 0.1 342 4.7
2009-06-08 07:47:37 51°13.662 2°55.962 128.3 -999 118 4.7
2009-06-08 07:47:42 51°13.662 2°55.962 128.3 -999 131 4.8
2009-06-08 07:47:46 51°13.662 2°55.961 128.2 -999 273 4.7
2009-06-08 07:47:51 51°13.662 2°55.961 128.2 -999 87 4.7
2009-06-08 07:47:56 51°13.662 2°55.961 128.2 0.1 124 4.8
2009-06-08 07:48:01 51°13.662 2°55.962 128.2 0.1 131 4.7
2009-06-08 07:48:06 51°13.661 2°55.961 128.2 -999 148 4.7
2009-06-08 07:48:10 51°13.661 2°55.961 128.2 -999 193 4.7
2009-06-08 07:48:16 51°13.663 2°55.963 128.2 0.1 344 4.8
2009-06-08 07:48:21 51°13.664 2°55.965 128.3 -999 118 4.7
2009-06-08 07:48:25 51°13.665 2°55.966 128.3 -999 154 4.7
2009-06-08 07:48:30 51°13.665 2°55.965 128.3 -999 88 4.7
2009-06-08 07:48:35 51°13.663 2°55.963 128.3 -999 55 4.7
2009-06-08 07:48:41 51°13.662 2°55.961 128.3 -999 237 4.8
2009-06-08 07:48:45 51°13.661 2°55.961 128.3 -999 86 4.7
2009-06-08 07:48:50 51°13.662 2°55.961 128.3 0.1 329 4.7
2009-06-08 07:48:55 51°13.662 2°55.961 128.3 -999 342 4.7
2009-06-08 07:49:01 51°13.662 2°55.961 128.3 -999 46 4.7
2009-06-08 07:49:06 51°13.662 2°55.961 128.3 -999 3 4.7
2009-06-08 07:49:10 51°13.662 2°55.962 128.3 -999 349 4.7
2009-06-08 07:49:15 51°13.663 2°55.963 128.3 -999 144 4.7
2009-06-08 07:49:21 51°13.664 2°55.963 128.3 -999 150 4.7
2009-06-08 07:49:26 51°13.664 2°55.964 128.3 -999 155 4.7
2009-06-08 07:49:30 51°13.664 2°55.964 128.3 -999 47 4.7
2009-06-08 07:49:35 51°13.665 2°55.965 128.3 -999 173 4.7
2009-06-08 07:49:40 51°13.664 2°55.964 128.3 -999 240 4.7
2009-06-08 07:49:45 51°13.663 2°55.962 128.3 -999 145 4.7
2009-06-08 07:49:50 51°13.662 2°55.962 128.3 -999 176 4.8
2009-06-08 07:49:56 51°13.662 2°55.962 128.2 -999 128 4.8
2009-06-08 07:50:00 51°13.662 2°55.962 128.2 -999 39 4.8
2009-06-08 07:50:05 51°13.662 2°55.962 128.2 -999 91 4.8
2009-06-08 07:50:10 51°13.661 2°55.962 128.2 -999 269 4.7
2009-06-08 07:50:16 51°13.661 2°55.962 128.2 -999 310 4.8
2009-06-08 07:50:21 51°13.661 2°55.962 128.1 -999 219 4.8
2009-06-08 07:50:25 51°13.661 2°55.962 127.9 -999 198 4.7
2009-06-08 07:50:30 51°13.661 2°55.962 127.8 -999 311 4.7
2009-06-08 07:50:36 51°13.661 2°55.962 127.8 -999 327 4.7
2009-06-08 07:50:41 51°13.661 2°55.962 127.8 -999 228 4.7
2009-06-08 07:50:45 51°13.661 2°55.962 127.7 -999 140 4.7
2009-06-08 07:50:50 51°13.661 2°55.962 127.6 -999 139 4.7
2009-06-08 07:50:55 51°13.661 2°55.962 127.4 -999 100 4.7
2009-06-08 07:51:01 51°13.661 2°55.962 127.2 -999 180 4.7
2009-06-08 07:51:05 51°13.661 2°55.962 127 -999 168 4.7
2009-06-08 07:51:10 51°13.66 2°55.962 126.7 0.1 315 4.7
2009-06-08 07:51:15 51°13.659 2°55.961 126.5 -999 266 4.8
2009-06-08 07:51:21 51°13.659 2°55.961 126.4 -999 191 4.8
2009-06-08 07:51:26 51°13.66 2°55.962 126.1 -999 161 4.8
2009-06-08 07:51:30 51°13.661 2°55.963 125.9 -999 199 4.7
2009-06-08 07:51:35 51°13.662 2°55.963 125.8 -999 177 4.7
2009-06-08 07:51:40 51°13.662 2°55.963 125.7 0.1 154 4.7
2009-06-08 07:51:46 51°13.662 2°55.963 125.6 -999 169 4.7
2009-06-08 07:51:50 51°13.661 2°55.962 125.5 -999 287 4.7
2009-06-08 07:51:56 51°13.661 2°55.962 125.4 0.1 276 4.7
2009-06-08 07:52:00 51°13.66 2°55.961 125.3 0.1 258 4.7
2009-06-08 07:52:05 51°13.66 2°55.962 125.3 -999 137 4.7
2009-06-08 07:52:10 51°13.66 2°55.962 125.3 -999 247 4.7
2009-06-08 07:52:16 51°13.66 2°55.962 125.3 -999 138 4.7
2009-06-08 07:52:20 51°13.66 2°55.962 125.3 -999 104 4.7
2009-06-08 07:52:26 51°13.66 2°55.962 125.3 -999 276 4.7
2009-06-08 07:52:30 51°13.661 2°55.962 125.3 -999 241 4.8
2009-06-08 07:52:36 51°13.661 2°55.963 125.3 -999 141 4.7
2009-06-08 07:52:41 51°13.66 2°55.962 125.6 0.1 154 4.7
2009-06-08 07:52:45 51°13.66 2°55.962 125.9 0.1 127 4.8
2009-06-08 07:52:50 51°13.659 2°55.962 126.3 -999 129 4.8
2009-06-08 07:52:56 51°13.659 2°55.962 126.5 0.1 135 4.8
2009-06-08 07:53:01 51°13.659 2°55.962 126.9 0.1 149 4.8
2009-06-08 07:53:05 51°13.659 2°55.962 127.3 0.1 116 4.8
2009-06-08 07:53:10 51°13.659 2°55.962 127.6 0.1 144 4.7
2009-06-08 07:53:15 51°13.659 2°55.962 127.8 0.1 129 4.8
2009-06-08 07:53:21 51°13.659 2°55.962 128 0.1 156 4.8
2009-06-08 07:53:26 51°13.659 2°55.962 128 -999 89 4.8
2009-06-08 07:53:30 51°13.659 2°55.962 128 -999 120 4.8
2009-06-08 07:53:35 51°13.659 2°55.962 128 -999 201 4.8
2009-06-08 07:53:41 51°13.659 2°55.962 128 -999 98 4.8
2009-06-08 07:53:46 51°13.66 2°55.962 127.9 -999 49 4.9
2009-06-08 07:53:50 51°13.66 2°55.962 127.8 -999 120 4.8
2009-06-08 07:53:56 51°13.661 2°55.962 127.7 -999 205 4.7
2009-06-08 07:54:00 51°13.662 2°55.963 127.7 -999 210 4.8
2009-06-08 07:54:06 51°13.661 2°55.962 127.6 -999 219 4.7
2009-06-08 07:54:10 51°13.66 2°55.962 127.6 -999 201 4.8
2009-06-08 07:54:16 51°13.66 2°55.962 127.6 -999 222 4.8
2009-06-08 07:54:21 51°13.66 2°55.962 127.6 -999 159 4.8
2009-06-08 07:54:25 51°13.66 2°55.962 127.6 -999 229 4.8
2009-06-08 07:54:30 51°13.66 2°55.962 127.6 -999 58 4.8
2009-06-08 07:54:35 51°13.66 2°55.962 127.5 -999 325 4.8
2009-06-08 07:54:41 51°13.66 2°55.961 127.3 0.1 313 4.8
2009-06-08 07:54:46 51°13.66 2°55.961 127.2 -999 208 4.8
2009-06-08 07:54:50 51°13.66 2°55.962 127 0.1 343 4.8
2009-06-08 07:54:56 51°13.661 2°55.962 127 -999 332 4.8
2009-06-08 07:55:01 51°13.661 2°55.961 126.8 0.1 -999 4.8
2009-06-08 07:55:06 51°13.661 2°55.961 126.6 0.3 352 4.9
2009-06-08 07:55:10 51°13.661 2°55.961 126.5 0.2 356 4.8
2009-06-08 07:55:16 51°13.66 2°55.961 126.4 0.1 171 4.8
2009-06-08 07:55:21 51°13.661 2°55.961 126.3 0.2 355 4.9
2009-06-08 07:55:26 51°13.66 2°55.961 126.3 0.1 358 4.8
2009-06-08 07:55:30 51°13.66 2°55.961 126.3 -999 10 4.8
2009-06-08 07:55:35 51°13.66 2°55.961 126.3 -999 354 4.9
2009-06-08 07:55:41 51°13.66 2°55.961 126.3 0.1 358 4.8
2009-06-08 07:55:45 51°13.66 2°55.961 126.3 0.1 169 4.7
2009-06-08 07:55:50 51°13.659 2°55.961 126.2 0.1 161 4.8
2009-06-08 07:55:55 51°13.659 2°55.961 126.2 0.1 156 4.9
2009-06-08 07:56:00 51°13.659 2°55.961 126.4 0.1 141 4.8
2009-06-08 07:56:06 51°13.659 2°55.961 126.7 0.1 147 4.9
2009-06-08 07:56:10 51°13.659 2°55.961 127.1 0.1 28 4.9
2009-06-08 07:56:15 51°13.66 2°55.961 127.4 0.1 11 4.8
2009-06-08 07:56:21 51°13.66 2°55.961 127.8 0.1 330 4.8
2009-06-08 07:56:25 51°13.66 2°55.961 128.1 0.1 25 4.8
2009-06-08 07:56:30 51°13.659 2°55.961 128.5 -999 354 4.8
2009-06-08 07:56:36 51°13.659 2°55.961 128.8 -999 181 4.8
2009-06-08 07:56:40 51°13.659 2°55.961 128.9 0.1 163 4.8
2009-06-08 07:56:45 51°13.659 2°55.961 129 0.1 173 4.8
2009-06-08 07:56:50 51°13.659 2°55.96 128.9 0.1 164 4.8
2009-06-08 07:56:56 51°13.66 2°55.96 128.8 0.2 358 4.8
2009-06-08 07:57:00 51°13.66 2°55.96 128.7 -999 100 4.8
2009-06-08 07:57:06 51°13.66 2°55.96 128.6 -999 150 4.8
2009-06-08 07:57:10 51°13.66 2°55.96 128.6 0.1 347 4.8
2009-06-08 07:57:16 51°13.66 2°55.96 128.6 0.1 1 4.8
2009-06-08 07:57:21 51°13.66 2°55.96 128.5 0.1 329 4.9
2009-06-08 07:57:26 51°13.66 2°55.96 128.5 -999 324 4.8
2009-06-08 07:57:30 51°13.66 2°55.96 128.5 0.1 165 4.8
2009-06-08 07:57:36 51°13.659 2°55.96 128.5 0.2 176 4.8
2009-06-08 07:57:40 51°13.659 2°55.96 128.6 0.1 192 4.8
2009-06-08 07:57:45 51°13.659 2°55.96 128.7 -999 182 4.8
2009-06-08 07:57:50 51°13.659 2°55.96 128.8 -999 164 5
2009-06-08 07:57:56 51°13.658 2°55.959 129 0.1 173 4.8
2009-06-08 07:58:01 51°13.658 2°55.959 129.2 0.1 207 4.8
2009-06-08 07:58:06 51°13.658 2°55.959 129.3 0.1 354 4.8
2009-06-08 07:58:10 51°13.659 2°55.959 129.4 0.1 15 4.9
2009-06-08 07:58:15 51°13.659 2°55.959 129.4 -999 153 4.8
2009-06-08 07:58:21 51°13.66 2°55.96 129.4 -999 119 4.9
2009-06-08 07:58:26 51°13.66 2°55.961 129.3 0.1 52 4.9
2009-06-08 07:58:30 51°13.66 2°55.961 128.7 0.1 59 4.9
2009-06-08 07:58:35 51°13.66 2°55.961 128.1 0.1 66 4.8
2009-06-08 07:58:41 51°13.66 2°55.961 127.5 -999 92 4.8
2009-06-08 07:58:46 51°13.66 2°55.961 126.7 -999 125 4.9
2009-06-08 07:58:50 51°13.66 2°55.961 126.3 0.1 207 4.8
2009-06-08 07:58:56 51°13.66 2°55.961 125.8 -999 203 4.8
2009-06-08 07:59:00 51°13.66 2°55.961 125.6 -999 220 4.9
2009-06-08 07:59:05 51°13.66 2°55.962 125.2 -999 184 4.9
2009-06-08 07:59:10 51°13.66 2°55.962 124.9 -999 135 4.9
2009-06-08 07:59:16 51°13.66 2°55.962 124.6 0.1 118 4.9
2009-06-08 07:59:21 51°13.66 2°55.962 124.2 0.1 199 4.9
2009-06-08 07:59:25 51°13.66 2°55.962 123.7 -999 235 4.8
2009-06-08 07:59:30 51°13.66 2°55.961 123.3 0.1 224 4.8
2009-06-08 07:59:36 51°13.66 2°55.962 122.8 -999 163 4.9
2009-06-08 07:59:40 51°13.66 2°55.962 122.3 -999 185 4.8
2009-06-08 07:59:46 51°13.66 2°55.962 121.9 -999 193 4.8
2009-06-08 07:59:50 51°13.659 2°55.962 121.3 0.1 152 4.9
2009-06-08 07:59:55 51°13.659 2°55.962 120.7 -999 171 4.9
2009-06-08 08:00:01 51°13.659 2°55.962 120.3 -999 182 4.9
2009-06-08 08:00:06 51°13.659 2°55.962 119.7 0.1 233 4.9
2009-06-08 08:00:10 51°13.659 2°55.962 119.1 0.1 238 5
2009-06-08 08:00:16 51°13.659 2°55.962 118.5 0.1 209 4.9
2009-06-08 08:00:21 51°13.659 2°55.962 118 -999 187 4.9
2009-06-08 08:00:25 51°13.659 2°55.962 117.3 -999 189 4.9
2009-06-08 08:00:30 51°13.66 2°55.962 116.8 0.1 187 4.9
2009-06-08 08:00:35 51°13.659 2°55.962 116.2 0.1 160 4.9
2009-06-08 08:00:41 51°13.659 2°55.962 115.5 0.1 137 5
2009-06-08 08:00:46 51°13.659 2°55.962 114.8 -999 134 5
2009-06-08 08:00:50 51°13.659 2°55.962 114.1 -999 286 4.9
2009-06-08 08:00:55 51°13.659 2°55.961 113.7 0.3 284 4.9
2009-06-08 08:01:01 51°13.66 2°55.96 113.3 0.6 294 4.9
2009-06-08 08:01:05 51°13.66 2°55.958 113.3 1 291 4.9
2009-06-08 08:01:10 51°13.661 2°55.956 113.3 1.3 295 5.2
2009-06-08 08:01:16 51°13.662 2°55.952 113.7 1.6 295 5.1
2009-06-08 08:01:21 51°13.663 2°55.948 114.2 1.9 295 -999
2009-06-08 08:01:26 51°13.665 2°55.944 114.8 2 297 -999
2009-06-08 08:01:32 51°13.666 2°55.939 115.3 2.1 298 -999
2009-06-08 08:01:38 51°13.668 2°55.934 115.6 2.2 299 -999
2009-06-08 08:01:44 51°13.67 2°55.928 115.8 2.4 297 -999
2009-06-08 08:01:49 51°13.672 2°55.923 115.9 2.6 299 -999
2009-06-08 08:01:54 51°13.673 2°55.918 115.5 2.7 297 -999
2009-06-08 08:01:59 51°13.675 2°55.912 114.6 2.9 297 -999
2009-06-08 08:02:04 51°13.677 2°55.906 113.1 3 295 -999
2009-06-08 08:02:09 51°13.678 2°55.9 111.2 3.1 292 -999
2009-06-08 08:02:14 51°13.68 2°55.893 110 3.3 291 -999
2009-06-08 08:02:19 51°13.682 2°55.886 108.6 3.6 289 -999
2009-06-08 08:02:24 51°13.683 2°55.878 107.6 3.7 288 -999
2009-06-08 08:02:29 51°13.684 2°55.87 107 3.7 286 -999
2009-06-08 08:02:34 51°13.686 2°55.862 106.4 3.7 286 -999
2009-06-08 08:02:39 51°13.687 2°55.854 105.5 3.6 285 -999
2009-06-08 08:02:44 51°13.689 2°55.847 104.4 3.6 284 -999
2009-06-08 08:02:49 51°13.69 2°55.839 103.2 3.5 283 -999
2009-06-08 08:02:54 51°13.691 2°55.832 102.1 3.4 283 -999
2009-06-08 08:02:59 51°13.692 2°55.825 101.4 3.4 282 -999
2009-06-08 08:03:04 51°13.693 2°55.818 100.2 3.3 282 -999
2009-06-08 08:03:09 51°13.694 2°55.811 98.9 3.2 281 -999
2009-06-08 08:03:14 51°13.694 2°55.804 97.7 3.1 280 -999
2009-06-08 08:03:19 51°13.695 2°55.797 96.6 3 279 -999
2009-06-08 08:03:24 51°13.696 2°55.791 95.2 2.8 278 -999
2009-06-08 08:03:29 51°13.696 2°55.785 93.6 2.7 278 -999
2009-06-08 08:03:34 51°13.697 2°55.779 92.3 2.6 276 -999
2009-06-08 08:03:39 51°13.697 2°55.773 91.1 2.6 276 11.2
2009-06-08 08:03:44 51°13.697 2°55.768 90.1 2.5 274 11.5
2009-06-08 08:03:49 51°13.698 2°55.763 89 2.4 274 12.1
2009-06-08 08:03:54 51°13.698 2°55.758 87.5 2.1 274 12.1
2009-06-08 08:03:58 51°13.698 2°55.755 86.3 1.7 272 12.2
2009-06-08 08:04:03 51°13.698 2°55.751 84.3 1.5 275 12.3
2009-06-08 08:04:08 51°13.698 2°55.749 81.5 1.2 273 12.4
2009-06-08 08:04:13 51°13.698 2°55.746 78.5 1 276 12.3
2009-06-08 08:04:18 51°13.698 2°55.745 75.4 0.8 279 12.2
2009-06-08 08:04:22 51°13.698 2°55.744 72.4 0.6 279 12.2
2009-06-08 08:04:27 51°13.698 2°55.743 69.6 0.4 288 12.2
2009-06-08 08:04:32 51°13.698 2°55.742 66.7 0.3 311 12
2009-06-08 08:04:37 51°13.699 2°55.742 63.6 0.3 341 11.8
2009-06-08 08:04:42 51°13.7 2°55.742 60.3 0.4 1 11.7
2009-06-08 08:04:47 51°13.701 2°55.742 56.8 0.5 13 11.5
2009-06-08 08:04:51 51°13.701 2°55.742 53.1 0.6 20 11.5
2009-06-08 08:04:56 51°13.702 2°55.743 48.9 0.8 21 11.5
2009-06-08 08:05:01 51°13.703 2°55.743 44.6 0.9 23 11.6
2009-06-08 08:05:06 51°13.704 2°55.744 40.2 1 21 11.9
2009-06-08 08:05:11 51°13.706 2°55.745 35.6 1 22 12.1
2009-06-08 08:05:16 51°13.707 2°55.746 31.2 0.9 16 12.3
2009-06-08 08:05:20 51°13.708 2°55.746 27.6 0.8 17 12.4
2009-06-08 08:05:26 51°13.709 2°55.746 24.6 0.6 9 12.4
2009-06-08 08:05:30 51°13.709 2°55.746 21.6 0.4 12 12.3
2009-06-08 08:05:36 51°13.71 2°55.746 18.5 0.2 335 12.3
2009-06-08 08:05:40 51°13.71 2°55.746 15.7 0.2 221 12.1
2009-06-08 08:05:46 51°13.709 2°55.745 13.2 0.4 207 12
2009-06-08 08:05:50 51°13.708 2°55.745 10.9 0.7 197 12.1
2009-06-08 08:05:56 51°13.707 2°55.744 8.7 0.9 195 12.1
2009-06-08 08:06:00 51°13.706 2°55.744 6.6 0.9 190 12.1
2009-06-08 08:06:06 51°13.704 2°55.743 4.7 1 190 12.1
2009-06-08 08:06:10 51°13.703 2°55.743 2.9 0.9 190 11.9
2009-06-08 08:06:16 51°13.702 2°55.742 1.5 0.8 189 4.7
2009-06-08 08:06:21 51°13.701 2°55.742 0.2 0.6 193 4.6
2009-06-08 08:06:26 51°13.701 2°55.742 358.7 0.3 205 -999
2009-06-08 08:06:30 51°13.701 2°55.741 356.3 0.2 296 11.6
2009-06-08 08:06:36 51°13.701 2°55.741 352.7 0.5 332 11.7
2009-06-08 08:06:41 51°13.702 2°55.74 348 0.6 325 11.6
2009-06-08 08:06:46 51°13.703 2°55.739 343.9 0.8 337 5.5
2009-06-08 08:06:50 51°13.704 2°55.738 340.5 1 332 4.8
2009-06-08 08:06:55 51°13.706 2°55.737 337.7 1.3 335 4.6
2009-06-08 08:07:01 51°13.709 2°55.734 335.5 2.1 330 12
2009-06-08 08:07:06 51°13.713 2°55.731 333.7 2.9 332 11.6
2009-06-08 08:07:10 51°13.716 2°55.728 332.1 3.6 328 11.7
2009-06-08 08:07:15 51°13.722 2°55.723 331.1 4.2 330 11
2009-06-08 08:07:20 51°13.728 2°55.718 330.9 4.8 328 11
2009-06-08 08:07:26 51°13.736 2°55.711 331.4 5.2 331 11.3
2009-06-08 08:07:30 51°13.741 2°55.707 332.5 5.6 330 11.1
2009-06-08 08:07:36 51°13.75 2°55.699 332.7 5.9 331 10.7
2009-06-08 08:07:40 51°13.756 2°55.693 332 6.2 329 9.7
2009-06-08 08:07:46 51°13.765 2°55.684 331.1 6.5 329 9.6
2009-06-08 08:07:50 51°13.771 2°55.677 331 6.8 329 9.7
2009-06-08 08:07:56 51°13.781 2°55.668 331.7 6.9 331 9.7
2009-06-08 08:08:00 51°13.788 2°55.662 332.7 7.1 331 9.9
2009-06-08 08:08:06 51°13.799 2°55.653 333.3 7.3 332 9.9
2009-06-08 08:08:10 51°13.806 2°55.647 333.9 7.4 333 10
2009-06-08 08:08:16 51°13.817 2°55.638 334.8 7.5 333 9.9
2009-06-08 08:08:21 51°13.827 2°55.631 335.9 7.6 335 9.7
2009-06-08 08:08:25 51°13.835 2°55.626 337.1 7.7 336 9.8
2009-06-08 08:08:30 51°13.844 2°55.619 337 7.7 335 9.7
2009-06-08 08:08:36 51°13.856 2°55.61 336.4 7.8 334 9.8
2009-06-08 08:08:41 51°13.866 2°55.603 336.4 7.9 335 9.9
2009-06-08 08:08:45 51°13.874 2°55.597 336.7 8 335 9.9
2009-06-08 08:08:50 51°13.884 2°55.589 336.2 8.1 334 10
2009-06-08 08:08:56 51°13.896 2°55.58 335.5 8.1 334 10
2009-06-08 08:09:01 51°13.907 2°55.572 336 8.2 335 10
2009-06-08 08:09:06 51°13.917 2°55.564 337.7 8.2 337 10.1
2009-06-08 08:09:10 51°13.925 2°55.558 338.4 8.2 336 10.1
2009-06-08 08:09:15 51°13.935 2°55.551 338.5 8.2 337 10.2
2009-06-08 08:09:21 51°13.948 2°55.542 338.4 8.2 336 10.2
2009-06-08 08:09:25 51°13.956 2°55.536 337.4 8.2 335 10.2
2009-06-08 08:09:30 51°13.967 2°55.529 336.9 8.2 335 10.2
2009-06-08 08:09:35 51°13.977 2°55.521 336.7 8.2 336 10.2
2009-06-08 08:09:41 51°13.989 2°55.512 336.9 8.2 335 10.1
2009-06-08 08:09:46 51°14 2°55.504 337.2 8.2 336 10.1
2009-06-08 08:09:50 51°14.008 2°55.499 337.6 8.3 336 10.1
2009-06-08 08:09:55 51°14.019 2°55.491 337.6 8.3 336 9.5
2009-06-08 08:10:01 51°14.031 2°55.482 337.5 8.3 336 9.8
2009-06-08 08:10:05 51°14.04 2°55.476 338 8.3 337 9.9
2009-06-08 08:10:10 51°14.05 2°55.469 338.1 8.3 336 10
2009-06-08 08:10:16 51°14.062 2°55.459 337.4 8.3 335 10
2009-06-08 08:10:20 51°14.071 2°55.454 337.9 8.3 337 10
2009-06-08 08:10:25 51°14.081 2°55.446 339 8.4 337 10
2009-06-08 08:10:30 51°14.092 2°55.439 338.6 8.4 336 10
2009-06-08 08:10:36 51°14.105 2°55.43 338.3 8.3 336 10
2009-06-08 08:10:41 51°14.115 2°55.422 337.9 8.4 335 10.1
2009-06-08 08:10:46 51°14.126 2°55.415 337.6 8.4 336 9.9
2009-06-08 08:10:50 51°14.134 2°55.409 337.6 8.4 335 10
2009-06-08 08:10:56 51°14.147 2°55.399 337 8.4 335 10
2009-06-08 08:11:01 51°14.158 2°55.392 337 8.5 335 9.7
2009-06-08 08:11:06 51°14.168 2°55.383 335.9 8.5 332 9.6
2009-06-08 08:11:10 51°14.176 2°55.376 334.6 8.5 332 9.9
2009-06-08 08:11:16 51°14.189 2°55.364 332.3 8.5 329 9.6
2009-06-08 08:11:21 51°14.199 2°55.354 330.4 8.5 327 9.6
2009-06-08 08:11:26 51°14.208 2°55.343 327.5 8.6 324 10.1
2009-06-08 08:11:30 51°14.216 2°55.334 325.7 8.7 323 10
2009-06-08 08:11:35 51°14.225 2°55.322 324.4 8.7 322 10
2009-06-08 08:11:41 51°14.236 2°55.307 322.6 8.8 320 10
2009-06-08 08:11:45 51°14.244 2°55.297 321.1 8.9 320 9.9
2009-06-08 08:11:50 51°14.253 2°55.284 321 8.9 319 9.8
2009-06-08 08:11:55 51°14.263 2°55.271 321.7 9 320 10
2009-06-08 08:12:00 51°14.273 2°55.258 321.4 9.2 319 10
2009-06-08 08:12:06 51°14.284 2°55.241 319.5 9.3 318 10.2
2009-06-08 08:12:10 51°14.292 2°55.23 319.4 9.4 319 10
2009-06-08 08:12:16 51°14.303 2°55.213 318.9 9.4 317 9.7
2009-06-08 08:12:20 51°14.311 2°55.201 316.9 9.5 315 9.9
2009-06-08 08:12:25 51°14.32 2°55.186 315.1 9.6 314 9.9
2009-06-08 08:12:30 51°14.329 2°55.17 314.3 9.7 313 10
2009-06-08 08:12:36 51°14.34 2°55.152 314.4 9.8 313 10.1
2009-06-08 08:12:41 51°14.349 2°55.136 314.4 9.8 313 10.1
2009-06-08 08:12:45 51°14.357 2°55.123 313.7 9.8 311 9.9
2009-06-08 08:12:50 51°14.365 2°55.106 310.7 9.9 308 10
2009-06-08 08:12:56 51°14.375 2°55.084 308.5 10 307 9.9
2009-06-08 08:13:01 51°14.383 2°55.066 307.6 10.1 305 10
2009-06-08 08:13:05 51°14.389 2°55.051 306.8 10.2 304 9.8
2009-06-08 08:13:10 51°14.397 2°55.032 306 10.2 303 9.7
2009-06-08 08:13:16 51°14.406 2°55.009 305.7 10.3 302 9.6
2009-06-08 08:13:21 51°14.414 2°54.989 305.2 10.4 302 9.6
2009-06-08 08:13:25 51°14.419 2°54.974 304.9 10.5 302 9.9
2009-06-08 08:13:30 51°14.427 2°54.954 305.3 10.6 302 9.9
2009-06-08 08:13:36 51°14.437 2°54.93 305.7 10.7 302 9.9
2009-06-08 08:13:41 51°14.445 2°54.91 305.7 10.8 302 10
2009-06-08 08:13:46 51°14.453 2°54.889 306.1 11 301 10.1
2009-06-08 08:13:50 51°14.459 2°54.873 307 11.1 302 10.1
2009-06-08 08:13:55 51°14.467 2°54.852 307.8 11.2 302 9.9
2009-06-08 08:14:01 51°14.478 2°54.827 309.8 11.3 305 10
2009-06-08 08:14:06 51°14.487 2°54.807 311.3 11.4 305 10
2009-06-08 08:14:10 51°14.495 2°54.79 311.8 11.5 306 9.9
2009-06-08 08:14:16 51°14.506 2°54.765 312.4 11.5 306 10
2009-06-08 08:14:21 51°14.516 2°54.745 313.6 11.6 308 9.8
2009-06-08 08:14:26 51°14.526 2°54.725 314.5 11.7 308 9.8
2009-06-08 08:14:30 51°14.534 2°54.709 315.8 11.6 310 9.6
2009-06-08 08:14:35 51°14.545 2°54.69 316.8 11.6 310 9.8
2009-06-08 08:14:41 51°14.558 2°54.667 317.6 11.6 313 9.6
2009-06-08 08:14:46 51°14.57 2°54.649 320.7 11.6 316 9.5
2009-06-08 08:14:50 51°14.579 2°54.635 322.9 11.5 317 9.5
2009-06-08 08:14:56 51°14.594 2°54.616 326 11.5 321 9.6
2009-06-08 08:15:01 51°14.606 2°54.6 327.8 11.4 321 9.5
2009-06-08 08:15:05 51°14.617 2°54.588 329.7 11.4 324 9.5
2009-06-08 08:15:10 51°14.63 2°54.573 331.2 11.4 324 9.5
2009-06-08 08:15:16 51°14.645 2°54.557 332.5 11.3 327 9.6
2009-06-08 08:15:21 51°14.658 2°54.543 333.8 11.4 326 9.5
2009-06-08 08:15:25 51°14.669 2°54.532 334.5 11.4 329 9.5
2009-06-08 08:15:30 51°14.683 2°54.519 335.8 11.4 329 9.5
2009-06-08 08:15:36 51°14.699 2°54.504 336.1 11.3 329 9.7
2009-06-08 08:15:41 51°14.713 2°54.491 336.9 11.3 331 9.5
2009-06-08 08:15:45 51°14.724 2°54.481 337.5 11.3 330 9.5
2009-06-08 08:15:50 51°14.737 2°54.468 336.7 11.4 330 9.6
2009-06-08 08:15:56 51°14.754 2°54.453 336.5 11.4 330 9.4
2009-06-08 08:16:01 51°14.767 2°54.44 335.9 11.4 329 9.5
2009-06-08 08:16:06 51°14.781 2°54.427 335.3 11.4 329 9.5
2009-06-08 08:16:10 51°14.792 2°54.416 335 11.4 328 9.3
2009-06-08 08:16:15 51°14.805 2°54.403 334.8 11.4 329 9.5
2009-06-08 08:16:21 51°14.822 2°54.387 335.1 11.4 329 9.4
2009-06-08 08:16:26 51°14.835 2°54.375 335.6 11.4 329 9.1
2009-06-08 08:16:30 51°14.846 2°54.364 335.8 11.4 329 9.1
2009-06-08 08:16:36 51°14.862 2°54.348 335.3 11.4 328 9.2
2009-06-08 08:16:41 51°14.875 2°54.335 334.7 11.3 328 8.8
2009-06-08 08:16:46 51°14.889 2°54.321 334.1 11.4 327 8.9
2009-06-08 08:16:50 51°14.899 2°54.31 333.7 11.3 327 8.7
2009-06-08 08:16:55 51°14.912 2°54.297 333.4 11.2 326 8.5
2009-06-08 08:17:01 51°14.927 2°54.279 332.9 11.2 325 8.5
2009-06-08 08:17:06 51°14.94 2°54.265 332.5 11.2 325 8.1
2009-06-08 08:17:10 51°14.95 2°54.254 332.5 11.2 325 8.2
2009-06-08 08:17:16 51°14.966 2°54.237 332.7 11.2 325 8.2
2009-06-08 08:17:21 51°14.978 2°54.222 333 11.2 325 8.1
2009-06-08 08:17:25 51°14.988 2°54.211 332.7 11.2 324 8.1
2009-06-08 08:17:30 51°15.001 2°54.197 332.5 11.2 325 8.3
2009-06-08 08:17:36 51°15.016 2°54.179 332.7 11.2 324 8.2
2009-06-08 08:17:41 51°15.029 2°54.165 332.7 11.2 325 8.3
2009-06-08 08:17:46 51°15.042 2°54.15 332.6 11.2 324 8.2
2009-06-08 08:17:50 51°15.052 2°54.139 332.7 11.2 325 8.2
2009-06-08 08:17:56 51°15.067 2°54.122 333.2 11.3 324 8.5
2009-06-08 08:18:01 51°15.08 2°54.107 332.6 11.2 324 8.4
2009-06-08 08:18:06 51°15.093 2°54.093 332.5 11.2 324 8.5
2009-06-08 08:18:10 51°15.103 2°54.081 332.4 11.3 324 8.5
2009-06-08 08:18:16 51°15.118 2°54.064 332.3 11.3 324 8.4
2009-06-08 08:18:21 51°15.131 2°54.05 332.6 11.3 325 8.7
2009-06-08 08:18:25 51°15.141 2°54.038 332.5 11.3 324 8.7
2009-06-08 08:18:30 51°15.153 2°54.024 332.6 11.2 325 8.5
2009-06-08 08:18:35 51°15.166 2°54.01 332.6 11.2 324 8.7
2009-06-08 08:18:41 51°15.181 2°53.993 332.7 11.2 325 8.6
2009-06-08 08:18:46 51°15.194 2°53.978 332.8 11.3 325 8.8
2009-06-08 08:18:50 51°15.205 2°53.967 332.5 11.2 325 8.7
2009-06-08 08:18:55 51°15.218 2°53.952 332.7 11.2 325 8.7
2009-06-08 08:19:01 51°15.233 2°53.936 332.9 11.2 325 8.8
2009-06-08 08:19:06 51°15.246 2°53.921 332.4 11.3 324 9.1
2009-06-08 08:19:10 51°15.256 2°53.91 332.7 11.3 326 8.9
2009-06-08 08:19:16 51°15.272 2°53.893 333.7 11.2 326 9
2009-06-08 08:19:20 51°15.282 2°53.883 334.7 11.2 327 9.1
2009-06-08 08:19:25 51°15.295 2°53.869 334.8 11.3 327 9.1
2009-06-08 08:19:30 51°15.309 2°53.856 335.1 11.3 328 9.1
2009-06-08 08:19:36 51°15.324 2°53.839 335.5 11.3 327 9.2
2009-06-08 08:19:41 51°15.338 2°53.826 335.4 11.3 327 9.3
2009-06-08 08:19:45 51°15.348 2°53.815 335.4 11.3 327 9.2
2009-06-08 08:19:50 51°15.362 2°53.802 335.5 11.3 328 9.2
2009-06-08 08:19:56 51°15.378 2°53.786 335.8 11.3 328 9.6
2009-06-08 08:20:01 51°15.391 2°53.773 336.1 11.3 329 9.6
2009-06-08 08:20:06 51°15.404 2°53.76 336.1 11.3 328 9.3
2009-06-08 08:20:10 51°15.415 2°53.749 336.1 11.4 328 9.8
2009-06-08 08:20:16 51°15.431 2°53.733 335.9 11.3 329 9.6
2009-06-08 08:20:21 51°15.445 2°53.72 336.1 11.3 328 9.6
2009-06-08 08:20:26 51°15.458 2°53.707 335.7 11.3 328 9.7
2009-06-08 08:20:30 51°15.469 2°53.696 335.4 11.4 328 9.9
2009-06-08 08:20:36 51°15.485 2°53.68 335.6 11.4 328 10
2009-06-08 08:20:41 51°15.498 2°53.667 335.7 11.4 329 10.1
2009-06-08 08:20:45 51°15.509 2°53.656 335.5 11.5 327 10.1
2009-06-08 08:20:50 51°15.522 2°53.643 335.4 11.4 329 9.7
2009-06-08 08:20:55 51°15.536 2°53.629 336.1 11.4 328 9.9
2009-06-08 08:21:01 51°15.552 2°53.614 336.9 11.4 330 10.2
2009-06-08 08:21:06 51°15.566 2°53.601 337.6 11.4 330 10.2
2009-06-08 08:21:10 51°15.577 2°53.591 337.6 11.4 329 10.1
2009-06-08 08:21:16 51°15.593 2°53.576 337.9 11.4 330 10.3
2009-06-08 08:21:20 51°15.604 2°53.566 337.9 11.4 329 10.2
2009-06-08 08:21:25 51°15.618 2°53.553 337.2 11.4 329 10.5
2009-06-08 08:21:30 51°15.632 2°53.539 336.7 11.5 328 10.3
2009-06-08 08:21:35 51°15.645 2°53.526 336.5 11.4 330 10.5
2009-06-08 08:21:41 51°15.662 2°53.511 337 11.5 329 10.5
2009-06-08 08:21:46 51°15.675 2°53.498 337.4 11.5 330 10.4
2009-06-08 08:21:50 51°15.686 2°53.488 337.3 11.5 329 10.8
2009-06-08 08:21:56 51°15.703 2°53.472 337.1 11.5 329 10.7
2009-06-08 08:22:01 51°15.717 2°53.459 336.9 11.5 330 10.7
2009-06-08 08:22:05 51°15.728 2°53.449 337.2 11.5 330 10.8
2009-06-08 08:22:10 51°15.742 2°53.437 337.5 11.5 329 10.9
2009-06-08 08:22:16 51°15.758 2°53.421 337.3 11.5 329 11
2009-06-08 08:22:21 51°15.771 2°53.407 336.9 11.5 328 10.9
2009-06-08 08:22:26 51°15.785 2°53.394 336.8 11.5 329 10.9
2009-06-08 08:22:30 51°15.796 2°53.383 337.2 11.5 329 10.3
2009-06-08 08:22:36 51°15.812 2°53.367 337.1 11.5 328 10.5
2009-06-08 08:22:41 51°15.826 2°53.354 336.9 11.5 329 10.7
2009-06-08 08:22:46 51°15.839 2°53.341 336.9 11.4 328 10.9
2009-06-08 08:22:50 51°15.85 2°53.33 336.9 11.5 329 11.1
2009-06-08 08:22:56 51°15.866 2°53.314 336.9 11.4 328 10.9
2009-06-08 08:23:01 51°15.88 2°53.301 336.8 11.5 328 11.2
2009-06-08 08:23:05 51°15.891 2°53.29 336.6 11.5 328 11.1
2009-06-08 08:23:10 51°15.904 2°53.277 336.8 11.5 328 11
2009-06-08 08:23:15 51°15.918 2°53.263 336.6 11.5 328 11.4
2009-06-08 08:23:21 51°15.934 2°53.247 336.3 11.5 328 11.6
2009-06-08 08:23:26 51°15.948 2°53.234 336.8 11.5 329 11.5
2009-06-08 08:23:30 51°15.959 2°53.224 337 11.5 329 11.6
2009-06-08 08:23:35 51°15.973 2°53.21 336.4 11.5 328 11.4
2009-06-08 08:23:40 51°15.986 2°53.197 336.2 11.5 329 11.2
2009-06-08 08:23:46 51°16.003 2°53.181 336.3 11.5 328 11.3
2009-06-08 08:23:50 51°16.014 2°53.17 336 11.6 327 11.3
2009-06-08 08:23:56 51°16.03 2°53.154 335.5 11.6 327 11.4
2009-06-08 08:24:01 51°16.044 2°53.14 336.2 11.6 329 11.6
2009-06-08 08:24:05 51°16.054 2°53.129 336.8 11.5 328 11.3
2009-06-08 08:24:10 51°16.068 2°53.115 336.8 11.5 327 11.4
2009-06-08 08:24:16 51°16.084 2°53.099 336.9 11.5 328 11.5
2009-06-08 08:24:21 51°16.098 2°53.085 337.3 11.6 328 11.6
2009-06-08 08:24:25 51°16.108 2°53.075 337.4 11.5 328 11.4
2009-06-08 08:24:30 51°16.122 2°53.061 337.6 11.5 329 11.5
2009-06-08 08:24:36 51°16.139 2°53.047 338.8 11.4 332 11.4
2009-06-08 08:24:41 51°16.152 2°53.034 339.1 11.5 331 11.6
2009-06-08 08:24:45 51°16.164 2°53.025 339.3 11.4 333 11.5
2009-06-08 08:24:50 51°16.178 2°53.014 340 11.4 332 11.5
2009-06-08 08:24:56 51°16.195 2°53 339.8 11.4 333 11.3
2009-06-08 08:25:01 51°16.209 2°52.988 339.7 11.3 333 11.5
2009-06-08 08:25:06 51°16.223 2°52.977 339.4 11.4 333 11.6
2009-06-08 08:25:10 51°16.235 2°52.968 340.4 11.3 334 11.5
2009-06-08 08:25:16 51°16.252 2°52.956 341.2 11.4 334 11.3
2009-06-08 08:25:21 51°16.266 2°52.946 342 11.3 336 11.4
2009-06-08 08:25:25 51°16.278 2°52.938 342.8 11.4 336 11.6
2009-06-08 08:25:30 51°16.292 2°52.927 343.1 11.3 336 11.4
2009-06-08 08:25:35 51°16.307 2°52.918 343.9 11.4 338 11.5
2009-06-08 08:25:41 51°16.324 2°52.906 344 11.3 337 11.7
2009-06-08 08:25:46 51°16.338 2°52.897 344.4 11.3 339 11.5
2009-06-08 08:25:50 51°16.35 2°52.889 344.7 11.3 338 11.5
2009-06-08 08:25:56 51°16.367 2°52.878 344.8 11.3 339 11.6
2009-06-08 08:26:00 51°16.379 2°52.87 345.3 11.3 339 11.6
2009-06-08 08:26:05 51°16.393 2°52.862 345.6 11.2 338 11.5
2009-06-08 08:26:10 51°16.408 2°52.852 345.1 11.2 339 11.5
2009-06-08 08:26:16 51°16.425 2°52.842 345.1 11.3 339 11.5
2009-06-08 08:26:21 51°16.44 2°52.832 345.1 11.3 338 11.8
2009-06-08 08:26:25 51°16.452 2°52.826 344.9 11.3 339 11.4
2009-06-08 08:26:30 51°16.466 2°52.818 345.7 11.2 341 11.4
2009-06-08 08:26:36 51°16.484 2°52.807 346.2 11.2 340 11.2
2009-06-08 08:26:41 51°16.498 2°52.799 346.3 11.2 341 11.2
2009-06-08 08:26:45 51°16.51 2°52.793 347 11.2 341 11.4
2009-06-08 08:26:50 51°16.525 2°52.785 347 11.2 341 11.4
2009-06-08 08:26:55 51°16.54 2°52.777 347.3 11.2 342 11.2
2009-06-08 08:27:01 51°16.557 2°52.768 347.5 11.1 341 11.2
2009-06-08 08:27:05 51°16.569 2°52.761 347.2 11.2 341 11.2
2009-06-08 08:27:10 51°16.584 2°52.753 347 11.2 341 11
2009-06-08 08:27:16 51°16.601 2°52.744 346.9 11.1 341 11
2009-06-08 08:27:21 51°16.616 2°52.736 346.9 11 341 10.6
2009-06-08 08:27:26 51°16.63 2°52.728 347 11.1 341 10.8
2009-06-08 08:27:30 51°16.642 2°52.721 346.8 11.2 340 10.6
2009-06-08 08:27:36 51°16.659 2°52.711 346.5 11.2 341 10.4
2009-06-08 08:27:41 51°16.674 2°52.703 346.5 11.1 340 10.2
2009-06-08 08:27:45 51°16.686 2°52.697 346.4 11.1 341 10.3
2009-06-08 08:27:50 51°16.7 2°52.688 346.4 11.1 340 10.1
2009-06-08 08:27:55 51°16.715 2°52.68 346.3 11.1 341 9.8
2009-06-08 08:28:01 51°16.732 2°52.67 346.3 11 340 9.7
2009-06-08 08:28:06 51°16.746 2°52.662 346.3 11 340 9.5
2009-06-08 08:28:10 51°16.758 2°52.656 346.5 11 341 9.2
2009-06-08 08:28:16 51°16.775 2°52.646 346.4 11 340 9.2
2009-06-08 08:28:21 51°16.789 2°52.638 346.3 10.9 341 9.2
2009-06-08 08:28:25 51°16.801 2°52.632 346.5 10.9 340 9.6
2009-06-08 08:28:30 51°16.815 2°52.623 346.2 10.9 340 9.2
2009-06-08 08:28:36 51°16.832 2°52.613 346 11 340 9.5
2009-06-08 08:28:41 51°16.846 2°52.605 345.9 10.9 341 9.3
2009-06-08 08:28:46 51°16.861 2°52.598 346.2 10.9 340 9.6
2009-06-08 08:28:51 51°16.875 2°52.591 347.7 10.8 344 9.5
2009-06-08 08:28:56 51°16.89 2°52.584 349.6 10.8 344 9.3
2009-06-08 08:29:01 51°16.904 2°52.578 349.8 10.8 345 9.6
2009-06-08 08:29:06 51°16.919 2°52.573 351.5 10.8 347 9.5
2009-06-08 08:29:10 51°16.93 2°52.568 351.7 10.8 345 9.4
2009-06-08 08:29:16 51°16.948 2°52.562 352.6 10.7 349 9.5
2009-06-08 08:29:21 51°16.962 2°52.557 353.6 10.8 348 9.4
2009-06-08 08:29:26 51°16.977 2°52.552 353.6 10.8 348 9.5
2009-06-08 08:29:30 51°16.989 2°52.549 354.2 10.6 350 9.3
2009-06-08 08:29:35 51°17.003 2°52.544 354.3 10.7 348 9.2
2009-06-08 08:29:41 51°17.021 2°52.54 355 10.7 350 9.4
2009-06-08 08:29:45 51°17.033 2°52.536 354.7 10.6 348 9.4
2009-06-08 08:29:50 51°17.047 2°52.531 354.6 10.7 349 9.2
2009-06-08 08:29:56 51°17.065 2°52.526 354.4 10.8 349 9.4
2009-06-08 08:30:01 51°17.079 2°52.522 354.3 10.6 350 9.1
2009-06-08 08:30:06 51°17.094 2°52.519 356.5 10.5 353 9.5
2009-06-08 08:30:10 51°17.105 2°52.516 357.3 10.5 352 9.4
2009-06-08 08:30:15 51°17.12 2°52.513 358.3 10.5 354 9.4
2009-06-08 08:30:21 51°17.138 2°52.511 359.4 10.6 354 9.3
2009-06-08 08:30:26 51°17.152 2°52.509 0.1 10.6 355 9.6
2009-06-08 08:30:30 51°17.164 2°52.508 0.5 10.6 356 9.6
2009-06-08 08:30:36 51°17.182 2°52.506 1 10.6 356 9.5
2009-06-08 08:30:41 51°17.196 2°52.504 1.5 10.6 356 9.3
2009-06-08 08:30:46 51°17.211 2°52.503 1.5 10.6 357 9.5
2009-06-08 08:30:50 51°17.223 2°52.502 1.9 10.7 356 9.5
2009-06-08 08:30:56 51°17.24 2°52.501 2.3 10.6 358 9.5
2009-06-08 08:31:01 51°17.255 2°52.5 2.7 10.6 357 9.7